createdAt,value
2018-12-29T00:00:34.338Z,99723.70
2018-12-29T00:03:06.358Z,99723.05
2018-12-29T00:05:38.939Z,99726.30
2018-12-29T00:08:10.805Z,99732.13
2018-12-29T00:10:42.918Z,99731.50
2018-12-29T00:13:14.602Z,99728.30
2018-12-29T00:15:46.449Z,99727.82
2018-12-29T00:18:18.521Z,99731.97
2018-12-29T00:20:50.570Z,99728.03
2018-12-29T00:23:22.567Z,99724.93
2018-12-29T00:25:54.632Z,99727.89
2018-12-29T00:28:26.484Z,99732.95
2018-12-29T00:30:58.337Z,99732.09
2018-12-29T00:33:30.228Z,99736.39
2018-12-29T00:36:01.903Z,99731.19
2018-12-29T00:38:33.667Z,99733.28
2018-12-29T00:41:05.337Z,99739.25
2018-12-29T00:43:37.099Z,99735.33
2018-12-29T00:46:08.887Z,99739.20
2018-12-29T00:48:40.532Z,99741.40
2018-12-29T00:51:12.218Z,99742.97
2018-12-29T00:53:43.893Z,99749.78
2018-12-29T00:56:15.716Z,99751.08
2018-12-29T00:58:47.341Z,99756.15
2018-12-29T01:01:19.079Z,99755.71
2018-12-29T01:03:50.878Z,99757.53
2018-12-29T01:06:22.581Z,99763.50
2018-12-29T01:08:55.927Z,99763.41
2018-12-29T01:11:27.847Z,99763.78
2018-12-29T01:13:59.696Z,99763.73
2018-12-29T01:16:31.952Z,99763.67
2018-12-29T01:19:03.583Z,99762.71
2018-12-29T01:21:35.244Z,99762.62
2018-12-29T01:24:06.761Z,99762.46
2018-12-29T01:26:38.791Z,99762.39
2018-12-29T01:29:10.504Z,99761.16
2018-12-29T01:31:42.581Z,99756.95
2018-12-29T01:34:14.453Z,99758.31
2018-12-29T01:36:46.173Z,99760.89
2018-12-29T01:39:17.841Z,99767.06
2018-12-29T01:41:49.583Z,99765.63
2018-12-29T01:44:21.655Z,99760.78
2018-12-29T01:46:53.366Z,99758.57
2018-12-29T01:49:24.912Z,99757.77
2018-12-29T01:51:56.735Z,99758.59
2018-12-29T01:54:28.623Z,99754.65
2018-12-29T01:57:00.561Z,99749.16
2018-12-29T01:59:32.283Z,99744.37
2018-12-29T02:02:04.093Z,99746.48
2018-12-29T02:04:35.767Z,99740.51
2018-12-29T02:07:07.448Z,99743.56
2018-12-29T02:09:39.006Z,99737.27
2018-12-29T02:12:10.869Z,99734.37
2018-12-29T02:14:42.659Z,99738.20
2018-12-29T02:17:14.391Z,99738.67
2018-12-29T02:19:46.111Z,99731.79
2018-12-29T02:22:17.644Z,99728.84
2018-12-29T02:24:49.218Z,99730.66
2018-12-29T02:27:20.801Z,99730.70
2018-12-29T02:29:52.802Z,99725.17
2018-12-29T02:32:24.485Z,99727.42
2018-12-29T02:34:56.231Z,99729.14
2018-12-29T02:37:27.873Z,99723.55
2018-12-29T02:39:59.484Z,99723.83
2018-12-29T02:42:31.198Z,99713.44
2018-12-29T02:45:02.942Z,99718.17
2018-12-29T02:47:34.529Z,99715.12
2018-12-29T02:50:06.914Z,99716.73
2018-12-29T02:52:38.771Z,99713.72
2018-12-29T02:55:11.626Z,99711.62
2018-12-29T02:57:43.286Z,99709.13
2018-12-29T03:00:14.887Z,99710.44
2018-12-29T03:02:46.705Z,99710.91
2018-12-29T03:05:18.380Z,99717.04
2018-12-29T03:07:50.085Z,99708.94
2018-12-29T03:10:22.212Z,99706.03
2018-12-29T03:12:54.108Z,99700.05
2018-12-29T03:15:25.793Z,99703.06
2018-12-29T03:17:57.536Z,99708.61
2018-12-29T03:20:29.304Z,99705.16
2018-12-29T03:23:00.917Z,99702.69
2018-12-29T03:25:32.896Z,99702.64
2018-12-29T03:28:04.899Z,99705.16
2018-12-29T03:30:36.472Z,99706.88
2018-12-29T03:33:08.183Z,99705.16
2018-12-29T03:35:39.827Z,99703.91
2018-12-29T03:38:11.454Z,99705.22
2018-12-29T03:40:43.120Z,99700.37
2018-12-29T03:43:14.666Z,99697.32
2018-12-29T03:45:49.221Z,99689.19
2018-12-29T03:48:19.473Z,99694.73
2018-12-29T03:50:51.172Z,99690.37
2018-12-29T03:53:23.034Z,99691.70
2018-12-29T03:55:55.154Z,99684.84
2018-12-29T03:58:26.712Z,99698.11
2018-12-29T04:00:59.355Z,99695.42
2018-12-29T04:03:31.081Z,99697.20
2018-12-29T04:06:03.652Z,99700.21
2018-12-29T04:08:35.268Z,99701.39
2018-12-29T04:11:07.094Z,99695.32
2018-12-29T04:13:40.406Z,99701.23
2018-12-29T04:16:12.012Z,99704.20
2018-12-29T04:18:43.693Z,99701.61
2018-12-29T04:21:15.487Z,99704.63
2018-12-29T04:23:47.096Z,99702.42
2018-12-29T04:26:19.300Z,99706.71
2018-12-29T04:28:50.924Z,99707.03
2018-12-29T04:31:22.582Z,99710.31
2018-12-29T04:33:54.377Z,99708.48
2018-12-29T04:36:26.153Z,99707.52
2018-12-29T04:38:57.961Z,99707.83
2018-12-29T04:41:29.523Z,99714.97
2018-12-29T04:44:01.131Z,99716.53
2018-12-29T04:46:32.879Z,99726.37
2018-12-29T04:49:04.656Z,99726.68
2018-12-29T04:51:36.449Z,99723.99
2018-12-29T04:54:08.024Z,99726.82
2018-12-29T04:56:39.694Z,99729.67
2018-12-29T04:59:11.703Z,99731.33
2018-12-29T05:01:43.427Z,99727.38
2018-12-29T05:04:15.018Z,99733.80
2018-12-29T05:06:46.698Z,99738.91
2018-12-29T05:09:18.348Z,99732.86
2018-12-29T05:11:49.937Z,99733.61
2018-12-29T05:14:21.590Z,99737.00
2018-12-29T05:16:53.212Z,99740.77
2018-12-29T05:19:24.754Z,99738.53
2018-12-29T05:21:56.298Z,99743.11
2018-12-29T05:24:27.979Z,99743.86
2018-12-29T05:26:59.622Z,99740.84
2018-12-29T05:29:31.572Z,99740.39
2018-12-29T05:32:03.093Z,99733.94
2018-12-29T05:34:34.675Z,99742.92
2018-12-29T05:37:06.286Z,99740.76
2018-12-29T05:39:37.901Z,99738.56
2018-12-29T05:42:09.463Z,99745.88
2018-12-29T05:44:41.383Z,99744.97
2018-12-29T05:47:13.025Z,99743.60
2018-12-29T05:49:45.080Z,99746.61
2018-12-29T05:52:16.630Z,99746.55
2018-12-29T05:54:48.257Z,99737.88
2018-12-29T05:57:20.084Z,99739.98
2018-12-29T05:59:51.711Z,99744.66
2018-12-29T06:02:23.404Z,99751.91
2018-12-29T06:04:55.054Z,99747.97
2018-12-29T06:07:26.699Z,99747.91
2018-12-29T06:09:58.402Z,99750.01
2018-12-29T06:12:29.983Z,99752.58
2018-12-29T06:15:01.674Z,99752.08
2018-12-29T06:17:33.393Z,99756.34
2018-12-29T06:20:05.177Z,99757.64
2018-12-29T06:22:36.899Z,99753.76
2018-12-29T06:25:08.715Z,99758.05
2018-12-29T06:27:40.685Z,99758.13
2018-12-29T06:30:13.072Z,99756.84
2018-12-29T06:32:44.815Z,99762.02
2018-12-29T06:35:17.853Z,99764.55
2018-12-29T06:37:49.740Z,99765.84
2018-12-29T06:40:22.400Z,99770.63
2018-12-29T06:42:54.153Z,99768.92
2018-12-29T06:45:25.849Z,99769.39
2018-12-29T06:47:57.715Z,99764.23
2018-12-29T06:50:29.857Z,99769.46
2018-12-29T06:53:01.793Z,99767.30
2018-12-29T06:55:34.944Z,99768.59
2018-12-29T06:58:06.983Z,99768.59
2018-12-29T07:00:38.600Z,99772.30
2018-12-29T07:03:10.098Z,99774.41
2018-12-29T07:05:41.922Z,99784.12
2018-12-29T07:08:13.567Z,99781.35
2018-12-29T07:10:45.501Z,99781.66
2018-12-29T07:13:17.155Z,99778.08
2018-12-29T07:15:48.687Z,99785.69
2018-12-29T07:18:20.409Z,99777.81
2018-12-29T07:20:52.016Z,99787.17
2018-12-29T07:23:24.153Z,99786.23
2018-12-29T07:25:55.915Z,99791.78
2018-12-29T07:28:27.473Z,99791.58
2018-12-29T07:30:59.026Z,99793.56
2018-12-29T07:33:30.776Z,99792.12
2018-12-29T07:36:02.387Z,99798.46
2018-12-29T07:38:34.066Z,99802.59
2018-12-29T07:41:24.424Z,99802.45
2018-12-29T07:43:56.441Z,99803.69
2018-12-29T07:46:28.114Z,99804.02
2018-12-29T07:48:59.967Z,99804.34
2018-12-29T07:51:32.074Z,99802.55
2018-12-29T07:54:04.852Z,99807.41
2018-12-29T07:56:36.499Z,99803.76
2018-12-29T07:59:08.161Z,99793.69
2018-12-29T08:01:39.886Z,99799.97
2018-12-29T08:04:11.892Z,99801.26
2018-12-29T08:06:43.666Z,99800.76
2018-12-29T08:09:15.523Z,99807.77
2018-12-29T08:11:47.443Z,99802.84
2018-12-29T08:14:19.191Z,99804.02
2018-12-29T08:16:56.870Z,99803.50
2018-12-29T08:19:24.527Z,99806.81
2018-12-29T08:22:11.759Z,99806.25
2018-12-29T08:24:43.723Z,99811.29
2018-12-29T08:27:15.636Z,99809.61
2018-12-29T08:29:47.766Z,99808.13
2018-12-29T08:32:19.640Z,99814.97
2018-12-29T08:34:51.749Z,99809.28
2018-12-29T08:37:24.879Z,99815.95
2018-12-29T08:39:57.099Z,99810.36
2018-12-29T08:42:29.122Z,99817.75
2018-12-29T08:45:01.271Z,99812.51
2018-12-29T08:47:33.718Z,99811.63
2018-12-29T08:50:12.755Z,99808.68
2018-12-29T08:52:39.944Z,99810.77
2018-12-29T08:55:12.260Z,99813.66
2018-12-29T08:57:47.014Z,99818.72
2018-12-29T09:00:19.107Z,99819.06
2018-12-29T09:02:51.131Z,99818.63
2018-12-29T09:05:22.809Z,99819.98
2018-12-29T09:07:55.522Z,99830.20
2018-12-29T09:10:27.983Z,99827.95
2018-12-29T09:13:00.164Z,99825.39
2018-12-29T09:15:32.621Z,99824.51
2018-12-29T09:18:04.497Z,99823.12
2018-12-29T09:20:36.417Z,99821.98
2018-12-29T09:23:08.701Z,99826.75
2018-12-29T09:25:40.950Z,99824.45
2018-12-29T09:28:13.131Z,99824.00
2018-12-29T09:30:46.877Z,99816.37
2018-12-29T09:33:20.993Z,99821.39
2018-12-29T09:35:53.880Z,99817.50
2018-12-29T09:38:26.967Z,99818.80
2018-12-29T09:40:59.655Z,99816.20
2018-12-29T09:43:31.920Z,99815.19
2018-12-29T09:46:05.315Z,99815.31
2018-12-29T09:48:39.417Z,99819.55
2018-12-29T09:51:13.521Z,99824.44
2018-12-29T09:53:46.481Z,99824.95
2018-12-29T09:56:19.074Z,99820.64
2018-12-29T09:58:51.520Z,99821.56
2018-12-29T10:01:25.167Z,99822.28
2018-12-29T10:03:57.139Z,99821.05
2018-12-29T10:06:29.049Z,99820.98
2018-12-29T10:09:01.314Z,99821.70
2018-12-29T10:11:34.431Z,99822.45
2018-12-29T10:14:07.090Z,99819.93
2018-12-29T10:16:41.582Z,99820.77
2018-12-29T10:19:13.647Z,99815.58
2018-12-29T10:21:45.716Z,99816.54
2018-12-29T10:24:17.807Z,99815.34
2018-12-29T10:26:49.920Z,99814.58
2018-12-29T10:29:22.666Z,99811.55
2018-12-29T10:31:55.302Z,99807.86
2018-12-29T10:34:27.889Z,99802.32
2018-12-29T10:37:00.136Z,99813.53
2018-12-29T10:39:33.274Z,99801.34
2018-12-29T10:42:06.725Z,99809.75
2018-12-29T10:44:38.898Z,99809.88
2018-12-29T10:47:10.455Z,99801.09
2018-12-29T10:49:42.376Z,99802.84
2018-12-29T10:52:14.934Z,99798.70
2018-12-29T10:54:47.045Z,99791.45
2018-12-29T10:57:20.995Z,99786.01
2018-12-29T10:59:54.719Z,99788.84
2018-12-29T11:02:26.897Z,99784.09
2018-12-29T11:04:58.977Z,99779.48
2018-12-29T11:07:33.173Z,99766.75
2018-12-29T11:10:05.947Z,99767.02
2018-12-29T11:12:38.292Z,99759.34
2018-12-29T11:15:10.167Z,99759.56
2018-12-29T11:17:45.483Z,99754.14
2018-12-29T11:20:17.787Z,99749.34
2018-12-29T11:22:50.290Z,99745.56
2018-12-29T11:25:22.379Z,99745.53
2018-12-29T11:27:54.748Z,99750.72
2018-12-29T11:30:26.702Z,99750.28
2018-12-29T11:32:59.687Z,99745.98
2018-12-29T11:35:31.791Z,99744.83
2018-12-29T11:38:04.144Z,99733.77
2018-12-29T11:40:36.477Z,99742.93
2018-12-29T11:43:09.910Z,99736.31
2018-12-29T11:45:42.462Z,99730.27
2018-12-29T11:48:14.747Z,99723.62
2018-12-29T11:50:46.915Z,99728.19
2018-12-29T11:53:18.881Z,99724.14
2018-12-29T11:55:54.348Z,99717.97
2018-12-29T11:58:31.464Z,99716.20
2018-12-29T12:01:06.551Z,99719.44
2018-12-29T12:03:46.524Z,99713.72
2018-12-29T12:06:19.330Z,99714.78
2018-12-29T12:08:52.585Z,99709.06
2018-12-29T12:11:26.771Z,99706.83
2018-12-29T12:13:59.047Z,99712.77
2018-12-29T12:16:30.859Z,99707.08
2018-12-29T12:19:02.718Z,99711.26
2018-12-29T12:21:35.211Z,99710.73
2018-12-29T12:24:07.446Z,99705.66
2018-12-29T12:26:41.235Z,99704.16
2018-12-29T12:29:14.408Z,99701.86
2018-12-29T12:31:48.195Z,99695.97
2018-12-29T12:34:20.478Z,99701.83
2018-12-29T12:36:52.726Z,99704.55
2018-12-29T12:39:24.785Z,99698.53
2018-12-29T12:41:56.769Z,99704.23
2018-12-29T12:44:29.712Z,99703.58
2018-12-29T12:47:01.712Z,99705.11
2018-12-29T12:49:33.866Z,99694.75
2018-12-29T12:52:05.883Z,99697.83
2018-12-29T12:54:41.755Z,99696.25
2018-12-29T12:57:16.507Z,99697.43
2018-12-29T12:59:50.468Z,99689.51
2018-12-29T13:02:24.054Z,99694.51
2018-12-29T13:04:58.423Z,99693.70
2018-12-29T13:07:32.889Z,99686.66
2018-12-29T13:10:05.815Z,99682.72
2018-12-29T13:12:39.187Z,99681.13
2018-12-29T13:15:13.897Z,99677.67
2018-12-29T13:17:46.992Z,99677.80
2018-12-29T13:20:20.272Z,99677.75
2018-12-29T13:22:52.499Z,99679.30
2018-12-29T13:25:26.033Z,99682.67
2018-12-29T13:28:08.555Z,99681.25
2018-12-29T13:30:45.546Z,99687.06
2018-12-29T13:33:18.501Z,99691.34
2018-12-29T13:35:51.164Z,99688.37
2018-12-29T13:38:29.394Z,99698.33
2018-12-29T13:41:02.939Z,99699.02
2018-12-29T13:43:35.966Z,99704.77
2018-12-29T13:46:13.643Z,99707.00
2018-12-29T13:48:47.558Z,99706.59
2018-12-29T13:51:21.432Z,99706.47
2018-12-29T13:53:54.299Z,99708.94
2018-12-29T13:56:30.247Z,99713.58
2018-12-29T13:59:05.123Z,99717.69
2018-12-29T14:01:40.608Z,99721.72
2018-12-29T14:04:16.779Z,99722.89
2018-12-29T14:06:51.851Z,99720.97
2018-12-29T14:09:25.660Z,99726.25
2018-12-29T14:12:00.085Z,99727.52
2018-12-29T14:14:35.237Z,99724.47
2018-12-29T14:17:07.323Z,99732.28
2018-12-29T14:19:42.007Z,99725.56
2018-12-29T14:22:17.740Z,99738.58
2018-12-29T14:24:50.411Z,99742.51
2018-12-29T14:27:22.859Z,99737.62
2018-12-29T14:29:54.974Z,99739.44
2018-12-29T14:32:27.320Z,99743.28
2018-12-29T14:35:00.313Z,99739.58
2018-12-29T14:37:34.456Z,99749.80
2018-12-29T14:40:06.731Z,99749.22
2018-12-29T14:42:39.675Z,99746.00
2018-12-29T14:45:13.291Z,99735.70
2018-12-29T14:47:45.568Z,99736.50
2018-12-29T14:50:17.702Z,99745.20
2018-12-29T14:52:49.851Z,99754.19
2018-12-29T14:55:21.655Z,99759.90
2018-12-29T14:57:56.829Z,99754.70
2018-12-29T15:00:28.950Z,99763.98
2018-12-29T15:03:02.254Z,99759.59
2018-12-29T15:05:34.547Z,99751.42
2018-12-29T15:08:07.954Z,99745.97
2018-12-29T15:10:39.977Z,99758.80
2018-12-29T15:13:12.993Z,99771.93
2018-12-29T15:15:46.965Z,99768.67
2018-12-29T15:18:19.200Z,99771.79
2018-12-29T15:20:51.566Z,99774.19
2018-12-29T15:23:24.264Z,99769.58
2018-12-29T15:25:57.232Z,99767.70
2018-12-29T15:28:29.597Z,99765.89
2018-12-29T15:31:02.405Z,99764.22
2018-12-29T15:33:36.794Z,99759.47
2018-12-29T15:36:16.014Z,99758.76
2018-12-29T15:38:44.518Z,99761.87
2018-12-29T15:41:17.984Z,99773.90
2018-12-29T15:43:51.859Z,99763.88
2018-12-29T15:46:24.344Z,99769.52
2018-12-29T15:49:18.031Z,99771.23
2018-12-29T15:51:51.544Z,99762.72
2018-12-29T15:54:25.806Z,99760.81
2018-12-29T15:56:57.905Z,99755.62
2018-12-29T15:59:30.341Z,99763.72
2018-12-29T16:02:02.687Z,99763.55
2018-12-29T16:04:36.073Z,99751.48
2018-12-29T16:07:08.399Z,99746.28
2018-12-29T16:09:43.485Z,99750.56
2018-12-29T16:12:16.705Z,99752.38
2018-12-29T16:14:49.123Z,99758.86
2018-12-29T16:17:21.116Z,99754.59
2018-12-29T16:19:54.015Z,99755.11
2018-12-29T16:22:26.255Z,99755.73
2018-12-29T16:24:58.823Z,99741.52
2018-12-29T16:27:31.417Z,99742.68
2018-12-29T16:30:06.208Z,99736.36
2018-12-29T16:32:38.787Z,99738.95
2018-12-29T16:35:11.866Z,99739.81
2018-12-29T16:37:47.125Z,99745.66
2018-12-29T16:40:20.600Z,99761.98
2018-12-29T16:42:53.792Z,99764.44
2018-12-29T16:45:27.725Z,99772.16
2018-12-29T16:48:01.582Z,99781.25
2018-12-29T16:50:34.671Z,99782.61
2018-12-29T16:53:07.037Z,99774.04
2018-12-29T16:55:40.682Z,99784.55
2018-12-29T16:58:13.290Z,99778.58
2018-12-29T17:00:46.720Z,99784.79
2018-12-29T17:03:19.158Z,99782.74
2018-12-29T17:05:51.686Z,99793.63
2018-12-29T17:08:24.078Z,99797.02
2018-12-29T17:10:57.820Z,99796.50
2018-12-29T17:13:32.091Z,99801.32
2018-12-29T17:16:05.669Z,99796.50
2018-12-29T17:18:37.932Z,99793.88
2018-12-29T17:21:11.513Z,99794.70
2018-12-29T17:23:46.054Z,99801.19
2018-12-29T17:26:18.731Z,99800.81
2018-12-29T17:28:51.061Z,99812.15
2018-12-29T17:31:28.111Z,99814.74
2018-12-29T17:34:02.590Z,99818.63
2018-12-29T17:36:41.917Z,99825.19
2018-12-29T17:39:14.271Z,99816.20
2018-12-29T17:41:46.711Z,99822.70
2018-12-29T17:44:19.993Z,99820.16
2018-12-29T17:46:53.190Z,99822.41
2018-12-29T17:49:26.067Z,99821.24
2018-12-29T17:51:59.612Z,99825.20
2018-12-29T17:54:32.277Z,99825.87
2018-12-29T17:57:08.549Z,99825.20
2018-12-29T17:59:41.611Z,99825.36
2018-12-29T18:02:13.908Z,99827.48
2018-12-29T18:04:46.134Z,99827.28
2018-12-29T18:07:19.533Z,99820.13
2018-12-29T18:09:57.157Z,99824.41
2018-12-29T18:12:26.596Z,99818.05
2018-12-29T18:15:00.830Z,99824.59
2018-12-29T18:17:33.526Z,99823.33
2018-12-29T18:20:05.843Z,99823.73
2018-12-29T18:22:38.337Z,99820.41
2018-12-29T18:25:10.322Z,99816.55
2018-12-29T18:27:42.587Z,99824.59
2018-12-29T18:30:16.444Z,99816.19
2018-12-29T18:32:48.742Z,99816.63
2018-12-29T18:35:20.501Z,99814.53
2018-12-29T18:37:53.729Z,99811.50
2018-12-29T18:40:26.598Z,99809.31
2018-12-29T18:43:00.134Z,99808.02
2018-12-29T18:45:32.815Z,99808.05
2018-12-29T18:48:05.463Z,99808.97
2018-12-29T18:50:39.580Z,99810.27
2018-12-29T18:53:11.532Z,99805.94
2018-12-29T18:55:45.157Z,99806.66
2018-12-29T18:58:17.254Z,99810.11
2018-12-29T19:00:51.080Z,99816.53
2018-12-29T19:03:23.543Z,99814.67
2018-12-29T19:05:55.463Z,99808.09
2018-12-29T19:08:28.171Z,99814.06
2018-12-29T19:11:00.215Z,99811.34
2018-12-29T19:13:32.628Z,99806.64
2018-12-29T19:16:05.943Z,99819.13
2018-12-29T19:18:41.585Z,99815.20
2018-12-29T19:21:12.281Z,99812.61
2018-12-29T19:23:46.096Z,99813.94
2018-12-29T19:26:18.822Z,99816.09
2018-12-29T19:28:51.270Z,99819.04
2018-12-29T19:31:23.935Z,99815.49
2018-12-29T19:33:55.784Z,99816.38
2018-12-29T19:36:29.537Z,99819.77
2018-12-29T19:39:02.765Z,99813.34
2018-12-29T19:41:35.228Z,99819.83
2018-12-29T19:44:07.995Z,99814.29
2018-12-29T19:46:41.362Z,99816.95
2018-12-29T19:49:13.658Z,99805.34
2018-12-29T19:51:46.360Z,99803.56
2018-12-29T19:54:19.095Z,99811.25
2018-12-29T19:56:52.501Z,99804.33
2018-12-29T19:59:25.456Z,99808.09
2018-12-29T20:01:59.019Z,99805.84
2018-12-29T20:04:32.189Z,99818.31
2018-12-29T20:07:07.439Z,99806.12
2018-12-29T20:09:47.813Z,99801.38
2018-12-29T20:12:24.808Z,99801.34
2018-12-29T20:15:00.426Z,99795.69
2018-12-29T20:17:35.839Z,99805.62
2018-12-29T20:20:16.035Z,99804.23
2018-12-29T20:22:58.397Z,99802.80
2018-12-29T20:25:38.130Z,99802.36
2018-12-29T20:28:14.650Z,99800.96
2018-12-29T20:30:59.075Z,99809.13
2018-12-29T20:33:33.971Z,99801.78
2018-12-29T20:36:10.359Z,99800.35
2018-12-29T20:38:49.964Z,99808.55
2018-12-29T20:41:30.093Z,99805.16
2018-12-29T20:44:03.797Z,99804.31
2018-12-29T20:46:46.428Z,99804.75
2018-12-29T20:49:23.267Z,99806.47
2018-12-29T20:52:00.070Z,99802.63
2018-12-29T20:54:34.423Z,99813.02
2018-12-29T20:57:13.730Z,99806.53
2018-12-29T20:59:49.868Z,99803.14
2018-12-29T21:02:29.636Z,99807.48
2018-12-29T21:05:22.075Z,99812.22
2018-12-29T21:07:58.794Z,99806.15
2018-12-29T21:10:33.923Z,99801.47
2018-12-29T21:13:10.970Z,99798.52
2018-12-29T21:15:50.007Z,99805.05
2018-12-29T21:18:29.548Z,99818.34
2018-12-29T21:21:04.714Z,99817.35
2018-12-29T21:23:45.128Z,99812.03
2018-12-29T21:26:21.443Z,99819.02
2018-12-29T21:28:58.853Z,99815.61
2018-12-29T21:31:33.579Z,99819.02
2018-12-29T21:34:10.644Z,99821.91
2018-12-29T21:36:51.035Z,99817.56
2018-12-29T21:39:32.831Z,99815.41
2018-12-29T21:42:10.296Z,99824.50
2018-12-29T21:44:47.051Z,99827.88
2018-12-29T21:47:30.523Z,99829.18
2018-12-29T21:50:29.553Z,99821.39
2018-12-29T21:53:03.178Z,99827.50
2018-12-29T21:55:44.327Z,99821.62
2018-12-29T21:58:19.883Z,99826.05
2018-12-29T22:00:54.744Z,99823.05
2018-12-29T22:03:30.300Z,99824.66
2018-12-29T22:06:08.111Z,99822.23
2018-12-29T22:08:42.621Z,99810.74
2018-12-29T22:11:17.627Z,99814.86
2018-12-29T22:13:55.379Z,99818.03
2018-12-29T22:16:32.392Z,99820.05
2018-12-29T22:19:10.989Z,99818.75
2018-12-29T22:21:48.073Z,99819.61
2018-12-29T22:24:23.617Z,99824.80
2018-12-29T22:27:01.849Z,99824.09
2018-12-29T22:29:40.855Z,99825.52
2018-12-29T22:32:17.443Z,99821.72
2018-12-29T22:34:54.505Z,99820.42
2018-12-29T22:37:28.821Z,99817.83
2018-12-29T22:40:06.688Z,99817.83
2018-12-29T22:42:41.664Z,99811.84
2018-12-29T22:45:17.088Z,99827.41
2018-12-29T22:47:51.007Z,99821.31
2018-12-29T22:50:30.731Z,99822.07
2018-12-29T22:53:06.658Z,99813.15
2018-12-29T22:55:44.443Z,99816.31
2018-12-29T22:58:19.597Z,99823.00
2018-12-29T23:00:54.556Z,99816.46
2018-12-29T23:03:28.000Z,99815.03
2018-12-29T23:06:05.425Z,99826.41
2018-12-29T23:08:39.801Z,99817.77
2018-12-29T23:11:17.404Z,99822.81
2018-12-29T23:13:52.138Z,99817.77
2018-12-29T23:16:27.785Z,99812.52
2018-12-29T23:19:04.576Z,99813.50
2018-12-29T23:21:39.130Z,99804.02
2018-12-29T23:24:14.488Z,99801.98
2018-12-29T23:26:49.399Z,99809.64
2018-12-29T23:29:24.613Z,99802.28
2018-12-29T23:31:59.808Z,99808.13
2018-12-29T23:34:33.156Z,99812.59
2018-12-29T23:37:04.959Z,99808.19
2018-12-29T23:39:37.067Z,99812.59
2018-12-29T23:42:09.061Z,99803.16
2018-12-29T23:44:40.770Z,99805.02
2018-12-29T23:47:12.842Z,99797.69
2018-12-29T23:49:44.700Z,99796.45
2018-12-29T23:52:17.005Z,99786.88
2018-12-29T23:54:49.008Z,99780.55
2018-12-29T23:57:21.269Z,99777.01
2018-12-29T23:59:53.630Z,99776.56
